sensor_id;sensor_type;location;lat;lon;timestamp;pressure;altitude;pressure_sealevel;temperature;humidity
53758;BME280;39674;59.860;30.672;2023-02-22T00:02:00;101058.84;;;-14.72;97.10
53758;BME280;39674;59.860;30.672;2023-02-22T00:04:42;101067.25;;;-14.73;97.32
53758;BME280;39674;59.860;30.672;2023-02-22T00:08:57;101063.75;;;-14.75;96.70
53758;BME280;39674;59.860;30.672;2023-02-22T00:10:34;101065.75;;;-14.84;97.16
53758;BME280;39674;59.860;30.672;2023-02-22T00:13:11;101068.66;;;-14.93;96.78
53758;BME280;39674;59.860;30.672;2023-02-22T00:15:57;101070.75;;;-15.01;96.97
53758;BME280;39674;59.860;30.672;2023-02-22T00:18:29;101071.97;;;-15.09;97.27
53758;BME280;39674;59.860;30.672;2023-02-22T00:21:05;101075.28;;;-15.10;97.19
53758;BME280;39674;59.860;30.672;2023-02-22T00:23:58;101076.69;;;-15.15;97.28
53758;BME280;39674;59.860;30.672;2023-02-22T00:26:43;101071.41;;;-15.18;96.84
53758;BME280;39674;59.860;30.672;2023-02-22T00:29:33;101077.88;;;-15.23;96.84
53758;BME280;39674;59.860;30.672;2023-02-22T00:32:18;101089.41;;;-15.28;97.32
53758;BME280;39674;59.860;30.672;2023-02-22T00:34:56;101087.47;;;-15.33;96.50
53758;BME280;39674;59.860;30.672;2023-02-22T00:37:36;101091.75;;;-15.31;96.54
53758;BME280;39674;59.860;30.672;2023-02-22T00:40:11;101095.31;;;-15.43;96.74
53758;BME280;39674;59.860;30.672;2023-02-22T00:42:44;101096.00;;;-15.45;96.50
53758;BME280;39674;59.860;30.672;2023-02-22T00:45:19;101099.94;;;-15.51;96.83
53758;BME280;39674;59.860;30.672;2023-02-22T00:47:59;101100.50;;;-15.55;96.83
53758;BME280;39674;59.860;30.672;2023-02-22T00:50:46;101107.88;;;-15.59;96.93
53758;BME280;39674;59.860;30.672;2023-02-22T00:53:18;101113.50;;;-15.63;96.74
53758;BME280;39674;59.860;30.672;2023-02-22T00:55:53;101120.13;;;-15.66;96.23
53758;BME280;39674;59.860;30.672;2023-02-22T00:58:33;101118.81;;;-15.74;96.67
53758;BME280;39674;59.860;30.672;2023-02-22T01:01:19;101123.50;;;-15.80;96.17
53758;BME280;39674;59.860;30.672;2023-02-22T01:03:57;101123.16;;;-15.86;95.85
53758;BME280;39674;59.860;30.672;2023-02-22T01:06:56;101132.91;;;-15.92;95.78
53758;BME280;39674;59.860;30.672;2023-02-22T01:09:36;101135.03;;;-15.99;95.69
53758;BME280;39674;59.860;30.672;2023-02-22T01:12:19;101139.13;;;-16.01;96.82
53758;BME280;39674;59.860;30.672;2023-02-22T01:14:49;101134.75;;;-16.03;96.53
53758;BME280;39674;59.860;30.672;2023-02-22T01:17:25;101133.69;;;-16.07;96.44
53758;BME280;39674;59.860;30.672;2023-02-22T01:19:54;101136.97;;;-16.08;96.14
53758;BME280;39674;59.860;30.672;2023-02-22T01:22:34;101131.06;;;-16.08;96.15
53758;BME280;39674;59.860;30.672;2023-02-22T01:25:06;101143.97;;;-16.04;96.29
53758;BME280;39674;59.860;30.672;2023-02-22T01:27:39;101135.81;;;-16.00;96.13
53758;BME280;39674;59.860;30.672;2023-02-22T01:30:27;101146.03;;;-15.98;96.14
53758;BME280;39674;59.860;30.672;2023-02-22T01:33:05;101151.19;;;-15.96;96.19
53758;BME280;39674;59.860;30.672;2023-02-22T01:35:39;101154.09;;;-15.90;96.32
53758;BME280;39674;59.860;30.672;2023-02-22T01:38:34;101156.81;;;-15.87;96.36
53758;BME280;39674;59.860;30.672;2023-02-22T01:41:09;101153.88;;;-15.80;96.53
53758;BME280;39674;59.860;30.672;2023-02-22T01:43:49;101155.50;;;-15.81;96.64
53758;BME280;39674;59.860;30.672;2023-02-22T01:46:35;101160.84;;;-15.76;96.86
53758;BME280;39674;59.860;30.672;2023-02-22T01:49:12;101166.13;;;-15.73;96.21
53758;BME280;39674;59.860;30.672;2023-02-22T01:51:52;101166.28;;;-15.70;96.81
53758;BME280;39674;59.860;30.672;2023-02-22T01:54:33;101158.91;;;-15.67;96.67
53758;BME280;39674;59.860;30.672;2023-02-22T01:57:12;101162.75;;;-15.58;96.68
53758;BME280;39674;59.860;30.672;2023-02-22T02:00:06;101166.19;;;-15.58;97.26
53758;BME280;39674;59.860;30.672;2023-02-22T02:02:42;101177.19;;;-15.57;96.91
53758;BME280;39674;59.860;30.672;2023-02-22T02:05:31;101176.31;;;-15.58;96.70
53758;BME280;39674;59.860;30.672;2023-02-22T02:08:17;101174.28;;;-15.63;97.25
53758;BME280;39674;59.860;30.672;2023-02-22T02:11:07;101181.81;;;-15.78;97.09
53758;BME280;39674;59.860;30.672;2023-02-22T02:13:51;101181.25;;;-15.88;96.98
53758;BME280;39674;59.860;30.672;2023-02-22T02:16:44;101180.09;;;-15.93;96.48
53758;BME280;39674;59.860;30.672;2023-02-22T02:19:17;101187.50;;;-15.96;97.40
53758;BME280;39674;59.860;30.672;2023-02-22T02:22:21;101189.25;;;-15.95;96.83
53758;BME280;39674;59.860;30.672;2023-02-22T02:28:40;101202.38;;;-15.87;97.27
53758;BME280;39674;59.860;30.672;2023-02-22T02:34:31;101213.03;;;-15.78;97.48
53758;BME280;39674;59.860;30.672;2023-02-22T02:37:10;101212.34;;;-15.75;97.65
53758;BME280;39674;59.860;30.672;2023-02-22T02:39:53;101208.97;;;-15.76;97.31
53758;BME280;39674;59.860;30.672;2023-02-22T02:42:36;101217.31;;;-15.77;97.52
53758;BME280;39674;59.860;30.672;2023-02-22T02:45:14;101220.56;;;-15.79;97.19
53758;BME280;39674;59.860;30.672;2023-02-22T02:48:01;101219.50;;;-15.83;97.11
53758;BME280;39674;59.860;30.672;2023-02-22T02:50:44;101226.16;;;-15.85;96.87
53758;BME280;39674;59.860;30.672;2023-02-22T02:53:33;101223.41;;;-15.88;97.18
53758;BME280;39674;59.860;30.672;2023-02-22T02:56:16;101227.50;;;-15.90;97.43
53758;BME280;39674;59.860;30.672;2023-02-22T02:59:18;101236.44;;;-15.95;97.51
53758;BME280;39674;59.860;30.672;2023-02-22T03:02:02;101238.81;;;-15.99;97.13
53758;BME280;39674;59.860;30.672;2023-02-22T03:04:47;101251.34;;;-16.00;97.36
53758;BME280;39674;59.860;30.672;2023-02-22T03:10:44;101253.56;;;-15.91;97.42
53758;BME280;39674;59.860;30.672;2023-02-22T03:13:27;101252.81;;;-15.90;97.02
53758;BME280;39674;59.860;30.672;2023-02-22T03:16:04;101252.13;;;-15.88;97.05
53758;BME280;39674;59.860;30.672;2023-02-22T03:18:57;101254.94;;;-15.83;97.46
53758;BME280;39674;59.860;30.672;2023-02-22T03:21:36;101250.25;;;-15.77;97.86
53758;BME280;39674;59.860;30.672;2023-02-22T03:24:26;101267.56;;;-15.70;97.61
53758;BME280;39674;59.860;30.672;2023-02-22T03:27:21;101259.59;;;-15.62;97.45
53758;BME280;39674;59.860;30.672;2023-02-22T03:29:55;101259.97;;;-15.56;97.66
53758;BME280;39674;59.860;30.672;2023-02-22T03:32:47;101258.59;;;-15.51;98.08
53758;BME280;39674;59.860;30.672;2023-02-22T03:35:19;101271.56;;;-15.46;98.53
53758;BME280;39674;59.860;30.672;2023-02-22T03:37:52;101269.31;;;-15.42;97.86
53758;BME280;39674;59.860;30.672;2023-02-22T03:40:26;101273.69;;;-15.39;98.09
53758;BME280;39674;59.860;30.672;2023-02-22T03:43:01;101270.47;;;-15.37;98.28
53758;BME280;39674;59.860;30.672;2023-02-22T03:48:58;101284.22;;;-15.33;98.02
53758;BME280;39674;59.860;30.672;2023-02-22T03:51:39;101285.88;;;-15.34;98.39
53758;BME280;39674;59.860;30.672;2023-02-22T03:54:18;101285.59;;;-15.38;98.49
53758;BME280;39674;59.860;30.672;2023-02-22T03:56:53;101280.31;;;-15.41;98.34
53758;BME280;39674;59.860;30.672;2023-02-22T03:59:37;101286.97;;;-15.43;99.04
53758;BME280;39674;59.860;30.672;2023-02-22T04:02:16;101291.13;;;-15.44;97.94
53758;BME280;39674;59.860;30.672;2023-02-22T04:04:59;101296.22;;;-15.44;98.43
53758;BME280;39674;59.860;30.672;2023-02-22T04:07:37;101297.97;;;-15.43;98.69
53758;BME280;39674;59.860;30.672;2023-02-22T04:10:24;101298.06;;;-15.41;98.44
53758;BME280;39674;59.860;30.672;2023-02-22T04:13:51;101295.53;;;-15.41;98.52
53758;BME280;39674;59.860;30.672;2023-02-22T04:16:46;101293.09;;;-15.40;98.96
53758;BME280;39674;59.860;30.672;2023-02-22T04:22:30;101304.97;;;-15.39;98.79
53758;BME280;39674;59.860;30.672;2023-02-22T04:25:21;101300.78;;;-15.38;98.79
53758;BME280;39674;59.860;30.672;2023-02-22T04:27:50;101318.63;;;-15.37;99.04
53758;BME280;39674;59.860;30.672;2023-02-22T04:30:25;101305.84;;;-15.38;98.71
53758;BME280;39674;59.860;30.672;2023-02-22T04:32:59;101317.75;;;-15.37;99.01
53758;BME280;39674;59.860;30.672;2023-02-22T04:35:27;101325.44;;;-15.36;98.69
53758;BME280;39674;59.860;30.672;2023-02-22T04:38:16;101312.00;;;-15.35;98.83
53758;BME280;39674;59.860;30.672;2023-02-22T04:40:46;101323.97;;;-15.32;98.65
53758;BME280;39674;59.860;30.672;2023-02-22T04:43:43;101320.75;;;-15.29;99.10
53758;BME280;39674;59.860;30.672;2023-02-22T04:46:23;101320.94;;;-15.26;99.00
53758;BME280;39674;59.860;30.672;2023-02-22T04:51:46;101321.13;;;-15.23;99.53
53758;BME280;39674;59.860;30.672;2023-02-22T04:54:19;101331.47;;;-15.20;99.79
53758;BME280;39674;59.860;30.672;2023-02-22T04:57:15;101329.81;;;-15.20;99.75
53758;BME280;39674;59.860;30.672;2023-02-22T04:59:53;101339.16;;;-15.19;99.79
53758;BME280;39674;59.860;30.672;2023-02-22T05:02:30;101334.97;;;-15.18;99.64
53758;BME280;39674;59.860;30.672;2023-02-22T05:05:02;101351.94;;;-15.17;99.71
53758;BME280;39674;59.860;30.672;2023-02-22T05:07:35;101341.78;;;-15.17;99.74
53758;BME280;39674;59.860;30.672;2023-02-22T05:10:08;101345.31;;;-15.15;100.00
53758;BME280;39674;59.860;30.672;2023-02-22T05:12:57;101353.78;;;-15.14;99.60
53758;BME280;39674;59.860;30.672;2023-02-22T05:15:34;101358.06;;;-15.13;99.91
53758;BME280;39674;59.860;30.672;2023-02-22T05:18:34;101348.78;;;-15.13;99.54
53758;BME280;39674;59.860;30.672;2023-02-22T05:21:12;101354.75;;;-15.12;99.81
53758;BME280;39674;59.860;30.672;2023-02-22T05:23:46;101365.00;;;-15.11;99.47
53758;BME280;39674;59.860;30.672;2023-02-22T05:26:43;101369.28;;;-15.10;99.57
53758;BME280;39674;59.860;30.672;2023-02-22T05:29:18;101370.94;;;-15.10;100.00
53758;BME280;39674;59.860;30.672;2023-02-22T05:31:57;101370.16;;;-15.09;100.00
53758;BME280;39674;59.860;30.672;2023-02-22T05:34:43;101369.28;;;-15.10;99.15
53758;BME280;39674;59.860;30.672;2023-02-22T05:37:11;101375.13;;;-15.11;99.14
53758;BME280;39674;59.860;30.672;2023-02-22T05:39:53;101384.50;;;-15.10;99.50
53758;BME280;39674;59.860;30.672;2023-02-22T05:43:16;101382.03;;;-15.08;99.23
53758;BME280;39674;59.860;30.672;2023-02-22T05:45:19;101385.56;;;-15.06;99.13
53758;BME280;39674;59.860;30.672;2023-02-22T05:48:09;101387.50;;;-15.02;99.56
53758;BME280;39674;59.860;30.672;2023-02-22T05:50:39;101386.63;;;-15.03;99.41
53758;BME280;39674;59.860;30.672;2023-02-22T05:53:10;101395.22;;;-15.01;99.64
53758;BME280;39674;59.860;30.672;2023-02-22T05:55:51;101391.88;;;-14.99;99.17
53758;BME280;39674;59.860;30.672;2023-02-22T05:58:24;101398.91;;;-14.95;99.34
53758;BME280;39674;59.860;30.672;2023-02-22T06:00:55;101393.84;;;-14.95;99.90
53758;BME280;39674;59.860;30.672;2023-02-22T06:03:27;101397.25;;;-14.95;99.03
53758;BME280;39674;59.860;30.672;2023-02-22T06:05:58;101404.16;;;-14.92;98.99
53758;BME280;39674;59.860;30.672;2023-02-22T06:08:31;101395.78;;;-14.91;99.34
53758;BME280;39674;59.860;30.672;2023-02-22T06:11:05;101408.75;;;-14.87;99.66
53758;BME280;39674;59.860;30.672;2023-02-22T06:13:38;101405.13;;;-14.77;99.65
53758;BME280;39674;59.860;30.672;2023-02-22T06:16:28;101399.59;;;-14.56;99.05
53758;BME280;39674;59.860;30.672;2023-02-22T06:19:01;101407.91;;;-14.30;99.25
53758;BME280;39674;59.860;30.672;2023-02-22T06:21:33;101406.06;;;-14.05;99.49
53758;BME280;39674;59.860;30.672;2023-02-22T06:24:20;101405.31;;;-13.74;99.51
53758;BME280;39674;59.860;30.672;2023-02-22T06:27:00;101411.03;;;-13.48;98.81
53758;BME280;39674;59.860;30.672;2023-02-22T06:29:33;101414.22;;;-13.20;98.85
53758;BME280;39674;59.860;30.672;2023-02-22T06:32:10;101423.22;;;-12.96;98.29
53758;BME280;39674;59.860;30.672;2023-02-22T06:34:46;101422.63;;;-12.75;98.16
53758;BME280;39674;59.860;30.672;2023-02-22T06:37:19;101430.66;;;-12.52;97.93
53758;BME280;39674;59.860;30.672;2023-02-22T06:39:57;101425.66;;;-12.34;97.80
53758;BME280;39674;59.860;30.672;2023-02-22T06:42:27;101428.78;;;-12.23;97.07
53758;BME280;39674;59.860;30.672;2023-02-22T06:44:56;101435.78;;;-12.19;96.57
53758;BME280;39674;59.860;30.672;2023-02-22T06:47:24;101433.16;;;-12.21;96.44
53758;BME280;39674;59.860;30.672;2023-02-22T06:49:52;101435.59;;;-12.22;95.91
53758;BME280;39674;59.860;30.672;2023-02-22T06:52:21;101447.22;;;-12.28;95.30
53758;BME280;39674;59.860;30.672;2023-02-22T06:54:49;101447.09;;;-12.31;95.46
53758;BME280;39674;59.860;30.672;2023-02-22T06:57:19;101456.28;;;-12.33;95.55
53758;BME280;39674;59.860;30.672;2023-02-22T06:59:50;101451.28;;;-12.31;94.88
53758;BME280;39674;59.860;30.672;2023-02-22T07:02:19;101451.13;;;-12.34;95.34
53758;BME280;39674;59.860;30.672;2023-02-22T07:04:47;101444.81;;;-12.41;95.14
53758;BME280;39674;59.860;30.672;2023-02-22T07:07:15;101450.28;;;-12.50;95.20
53758;BME280;39674;59.860;30.672;2023-02-22T07:09:45;101456.63;;;-12.58;95.11
53758;BME280;39674;59.860;30.672;2023-02-22T07:12:12;101459.75;;;-12.64;95.07
53758;BME280;39674;59.860;30.672;2023-02-22T07:14:43;101458.50;;;-12.70;95.47
53758;BME280;39674;59.860;30.672;2023-02-22T07:17:15;101466.13;;;-12.70;95.70
53758;BME280;39674;59.860;30.672;2023-02-22T07:19:44;101457.38;;;-12.76;95.86
53758;BME280;39674;59.860;30.672;2023-02-22T07:22:12;101460.72;;;-12.77;96.11
53758;BME280;39674;59.860;30.672;2023-02-22T07:24:41;101460.56;;;-12.80;96.56
53758;BME280;39674;59.860;30.672;2023-02-22T07:27:09;101465.81;;;-12.77;96.82
53758;BME280;39674;59.860;30.672;2023-02-22T07:29:38;101468.53;;;-12.73;96.65
53758;BME280;39674;59.860;30.672;2023-02-22T07:32:14;101476.31;;;-12.70;97.03
53758;BME280;39674;59.860;30.672;2023-02-22T07:34:42;101474.56;;;-12.71;96.73
53758;BME280;39674;59.860;30.672;2023-02-22T07:37:11;101476.31;;;-12.70;96.83
53758;BME280;39674;59.860;30.672;2023-02-22T07:39:40;101488.25;;;-12.69;97.49
53758;BME280;39674;59.860;30.672;2023-02-22T07:42:09;101491.94;;;-12.64;97.08
53758;BME280;39674;59.860;30.672;2023-02-22T07:44:37;101490.34;;;-12.62;97.94
53758;BME280;39674;59.860;30.672;2023-02-22T07:47:06;101490.34;;;-12.62;97.74
53758;BME280;39674;59.860;30.672;2023-02-22T07:49:39;101494.09;;;-12.55;98.17
53758;BME280;39674;59.860;30.672;2023-02-22T07:52:08;101497.78;;;-12.50;97.89
53758;BME280;39674;59.860;30.672;2023-02-22T07:54:38;101501.53;;;-12.44;97.52
53758;BME280;39674;59.860;30.672;2023-02-22T07:57:09;101495.19;;;-12.35;97.74
53758;BME280;39674;59.860;30.672;2023-02-22T07:59:39;101495.88;;;-12.23;98.40
53758;BME280;39674;59.860;30.672;2023-02-22T08:02:09;101504.09;;;-12.12;98.76
53758;BME280;39674;59.860;30.672;2023-02-22T08:04:47;101505.44;;;-12.02;98.14
53758;BME280;39674;59.860;30.672;2023-02-22T08:07:16;101509.91;;;-11.98;98.51
53758;BME280;39674;59.860;30.672;2023-02-22T08:09:44;101514.34;;;-11.94;98.61
53758;BME280;39674;59.860;30.672;2023-02-22T08:12:13;101510.97;;;-11.93;98.67
53758;BME280;39674;59.860;30.672;2023-02-22T08:14:43;101518.72;;;-11.91;98.53
53758;BME280;39674;59.860;30.672;2023-02-22T08:17:11;101522.31;;;-11.88;99.00
53758;BME280;39674;59.860;30.672;2023-02-22T08:19:40;101526.75;;;-11.84;98.79
53758;BME280;39674;59.860;30.672;2023-02-22T08:22:10;101524.34;;;-11.81;98.46
53758;BME280;39674;59.860;30.672;2023-02-22T08:24:38;101527.88;;;-11.79;98.36
53758;BME280;39674;59.860;30.672;2023-02-22T08:27:07;101532.50;;;-11.71;98.87
53758;BME280;39674;59.860;30.672;2023-02-22T08:29:36;101528.44;;;-11.68;98.42
53758;BME280;39674;59.860;30.672;2023-02-22T08:32:05;101530.44;;;-11.62;99.31
53758;BME280;39674;59.860;30.672;2023-02-22T08:34:33;101528.09;;;-11.57;99.30
53758;BME280;39674;59.860;30.672;2023-02-22T08:37:02;101530.09;;;-11.52;99.86
53758;BME280;39674;59.860;30.672;2023-02-22T08:39:32;101533.94;;;-11.43;99.73
53758;BME280;39674;59.860;30.672;2023-02-22T08:42:00;101540.06;;;-11.40;99.68
53758;BME280;39674;59.860;30.672;2023-02-22T08:44:29;101534.25;;;-11.37;99.77
53758;BME280;39674;59.860;30.672;2023-02-22T08:46:57;101535.41;;;-11.31;99.43
53758;BME280;39674;59.860;30.672;2023-02-22T08:49:27;101541.56;;;-11.27;99.83
53758;BME280;39674;59.860;30.672;2023-02-22T08:52:03;101535.91;;;-11.21;99.61
53758;BME280;39674;59.860;30.672;2023-02-22T08:54:36;101543.78;;;-11.17;100.00
53758;BME280;39674;59.860;30.672;2023-02-22T08:57:04;101537.25;;;-11.11;99.68
53758;BME280;39674;59.860;30.672;2023-02-22T08:59:32;101536.59;;;-11.07;100.00
53758;BME280;39674;59.860;30.672;2023-02-22T09:02:01;101540.34;;;-11.01;100.00
53758;BME280;39674;59.860;30.672;2023-02-22T09:04:29;101533.13;;;-10.91;99.76
53758;BME280;39674;59.860;30.672;2023-02-22T09:06:57;101534.13;;;-10.88;100.00
53758;BME280;39674;59.860;30.672;2023-02-22T09:09:25;101543.91;;;-10.79;100.00
53758;BME280;39674;59.860;30.672;2023-02-22T09:11:55;101548.53;;;-10.72;100.00
53758;BME280;39674;59.860;30.672;2023-02-22T09:14:23;101548.09;;;-10.63;100.00
53758;BME280;39674;59.860;30.672;2023-02-22T09:16:52;101552.19;;;-10.49;100.00
53758;BME280;39674;59.860;30.672;2023-02-22T09:19:20;101551.13;;;-10.34;100.00
53758;BME280;39674;59.860;30.672;2023-02-22T09:21:51;101554.28;;;-10.22;100.00
53758;BME280;39674;59.860;30.672;2023-02-22T09:24:19;101554.03;;;-10.08;100.00
53758;BME280;39674;59.860;30.672;2023-02-22T09:26:50;101555.41;;;-9.97;100.00
53758;BME280;39674;59.860;30.672;2023-02-22T09:29:21;101561.91;;;-9.86;100.00
53758;BME280;39674;59.860;30.672;2023-02-22T09:31:52;101553.03;;;-9.74;100.00
53758;BME280;39674;59.860;30.672;2023-02-22T09:34:22;101561.34;;;-9.59;100.00
53758;BME280;39674;59.860;30.672;2023-02-22T09:36:55;101562.03;;;-9.43;100.00
53758;BME280;39674;59.860;30.672;2023-02-22T09:39:23;101566.19;;;-9.26;99.93
53758;BME280;39674;59.860;30.672;2023-02-22T09:41:56;101563.38;;;-9.12;99.61
53758;BME280;39674;59.860;30.672;2023-02-22T09:44:34;101570.97;;;-8.94;99.29
53758;BME280;39674;59.860;30.672;2023-02-22T09:47:03;101582.00;;;-8.74;98.70
53758;BME280;39674;59.860;30.672;2023-02-22T09:49:36;101570.78;;;-8.57;98.43
53758;BME280;39674;59.860;30.672;2023-02-22T09:52:06;101583.50;;;-8.37;99.19
53758;BME280;39674;59.860;30.672;2023-02-22T09:54:38;101582.22;;;-8.26;98.33
53758;BME280;39674;59.860;30.672;2023-02-22T09:57:09;101581.47;;;-8.23;98.33
53758;BME280;39674;59.860;30.672;2023-02-22T09:59:45;101585.94;;;-8.19;97.99
53758;BME280;39674;59.860;30.672;2023-02-22T10:02:18;101580.94;;;-8.14;97.58
53758;BME280;39674;59.860;30.672;2023-02-22T10:04:54;101589.72;;;-8.09;97.66
53758;BME280;39674;59.860;30.672;2023-02-22T10:07:28;101587.22;;;-8.08;98.10
53758;BME280;39674;59.860;30.672;2023-02-22T10:09:59;101592.69;;;-7.98;98.41
53758;BME280;39674;59.860;30.672;2023-02-22T10:12:35;101598.22;;;-7.87;98.04
53758;BME280;39674;59.860;30.672;2023-02-22T10:17:56;101595.84;;;-7.83;97.75
53758;BME280;39674;59.860;30.672;2023-02-22T10:20:37;101600.16;;;-7.82;97.18
53758;BME280;39674;59.860;30.672;2023-02-22T10:23:15;101600.03;;;-7.85;97.05
53758;BME280;39674;59.860;30.672;2023-02-22T10:25:47;101590.91;;;-7.78;97.42
53758;BME280;39674;59.860;30.672;2023-02-22T10:28:20;101598.88;;;-7.70;97.17
53758;BME280;39674;59.860;30.672;2023-02-22T10:30:52;101603.69;;;-7.55;97.12
53758;BME280;39674;59.860;30.672;2023-02-22T10:33:25;101609.03;;;-7.49;96.62
53758;BME280;39674;59.860;30.672;2023-02-22T10:35:55;101598.28;;;-7.40;96.66
53758;BME280;39674;59.860;30.672;2023-02-22T10:38:24;101598.03;;;-7.22;96.22
53758;BME280;39674;59.860;30.672;2023-02-22T10:40:53;101601.97;;;-7.08;95.86
53758;BME280;39674;59.860;30.672;2023-02-22T10:43:23;101607.44;;;-6.99;95.45
53758;BME280;39674;59.860;30.672;2023-02-22T10:45:55;101600.34;;;-7.06;92.61
53758;BME280;39674;59.860;30.672;2023-02-22T10:48:31;101609.63;;;-7.10;93.82
53758;BME280;39674;59.860;30.672;2023-02-22T10:51:03;101618.91;;;-7.13;93.85
53758;BME280;39674;59.860;30.672;2023-02-22T10:53:34;101618.56;;;-7.22;93.21
53758;BME280;39674;59.860;30.672;2023-02-22T10:56:07;101618.47;;;-7.26;93.82
53758;BME280;39674;59.860;30.672;2023-02-22T10:58:43;101622.81;;;-7.24;94.13
53758;BME280;39674;59.860;30.672;2023-02-22T11:01:17;101623.63;;;-7.26;93.74
53758;BME280;39674;59.860;30.672;2023-02-22T11:03:56;101622.09;;;-7.20;94.07
53758;BME280;39674;59.860;30.672;2023-02-22T11:06:28;101623.94;;;-7.16;94.10
53758;BME280;39674;59.860;30.672;2023-02-22T11:09:09;101622.41;;;-7.11;93.75
53758;BME280;39674;59.860;30.672;2023-02-22T11:11:39;101625.41;;;-6.99;92.53
53758;BME280;39674;59.860;30.672;2023-02-22T11:14:08;101627.59;;;-6.85;93.51
53758;BME280;39674;59.860;30.672;2023-02-22T11:16:37;101616.81;;;-6.75;92.64
53758;BME280;39674;59.860;30.672;2023-02-22T11:19:19;101625.94;;;-6.57;92.81
53758;BME280;39674;59.860;30.672;2023-02-22T11:21:50;101633.59;;;-6.33;92.44
53758;BME280;39674;59.860;30.672;2023-02-22T11:24:19;101624.25;;;-6.04;91.69
53758;BME280;39674;59.860;30.672;2023-02-22T11:26:50;101630.28;;;-5.73;90.45
53758;BME280;39674;59.860;30.672;2023-02-22T11:29:24;101632.94;;;-5.41;90.34
53758;BME280;39674;59.860;30.672;2023-02-22T11:31:53;101635.47;;;-5.12;89.42
53758;BME280;39674;59.860;30.672;2023-02-22T11:34:31;101632.84;;;-4.83;89.03
53758;BME280;39674;59.860;30.672;2023-02-22T11:37:15;101630.06;;;-4.57;87.04
53758;BME280;39674;59.860;30.672;2023-02-22T11:39:44;101632.81;;;-4.51;85.56
53758;BME280;39674;59.860;30.672;2023-02-22T11:42:19;101634.38;;;-4.56;86.75
53758;BME280;39674;59.860;30.672;2023-02-22T11:44:49;101634.81;;;-4.73;86.31
53758;BME280;39674;59.860;30.672;2023-02-22T11:47:45;101628.91;;;-5.01;83.50
53758;BME280;39674;59.860;30.672;2023-02-22T11:50:18;101626.50;;;-5.26;83.57
53758;BME280;39674;59.860;30.672;2023-02-22T11:52:48;101631.81;;;-5.51;86.46
53758;BME280;39674;59.860;30.672;2023-02-22T11:55:21;101636.81;;;-5.84;86.40
53758;BME280;39674;59.860;30.672;2023-02-22T11:57:54;101632.91;;;-6.02;87.13
53758;BME280;39674;59.860;30.672;2023-02-22T12:00:33;101641.13;;;-6.12;87.85
53758;BME280;39674;59.860;30.672;2023-02-22T12:08:42;101641.97;;;-6.39;89.44
53758;BME280;39674;59.860;30.672;2023-02-22T12:11:23;101644.41;;;-6.43;89.30
53758;BME280;39674;59.860;30.672;2023-02-22T12:13:58;101647.66;;;-6.49;88.90
53758;BME280;39674;59.860;30.672;2023-02-22T12:16:32;101650.09;;;-6.52;88.27
53758;BME280;39674;59.860;30.672;2023-02-22T12:19:07;101653.41;;;-6.56;89.05
53758;BME280;39674;59.860;30.672;2023-02-22T12:21:40;101651.56;;;-6.61;89.52
53758;BME280;39674;59.860;30.672;2023-02-22T12:24:13;101655.75;;;-6.63;89.87
53758;BME280;39674;59.860;30.672;2023-02-22T12:26:45;101654.81;;;-6.65;90.42
53758;BME280;39674;59.860;30.672;2023-02-22T12:29:17;101653.09;;;-6.66;90.41
53758;BME280;39674;59.860;30.672;2023-02-22T12:31:49;101658.94;;;-6.70;88.64
53758;BME280;39674;59.860;30.672;2023-02-22T12:34:21;101654.63;;;-6.71;89.91
53758;BME280;39674;59.860;30.672;2023-02-22T12:36:54;101659.66;;;-6.74;89.46
53758;BME280;39674;59.860;30.672;2023-02-22T12:39:29;101662.03;;;-6.80;88.60
53758;BME280;39674;59.860;30.672;2023-02-22T12:42:01;101659.44;;;-6.80;87.67
53758;BME280;39674;59.860;30.672;2023-02-22T12:44:36;101665.56;;;-6.77;88.88
53758;BME280;39674;59.860;30.672;2023-02-22T12:47:06;101667.97;;;-6.81;89.35
53758;BME280;39674;59.860;30.672;2023-02-22T12:49:39;101669.59;;;-6.83;89.04
53758;BME280;39674;59.860;30.672;2023-02-22T12:52:14;101668.78;;;-6.82;88.61
53758;BME280;39674;59.860;30.672;2023-02-22T12:54:49;101673.31;;;-6.75;89.07
53758;BME280;39674;59.860;30.672;2023-02-22T12:57:23;101668.19;;;-6.75;88.88
53758;BME280;39674;59.860;30.672;2023-02-22T12:59:54;101674.09;;;-6.78;88.30
53758;BME280;39674;59.860;30.672;2023-02-22T13:02:26;101668.91;;;-6.79;87.70
53758;BME280;39674;59.860;30.672;2023-02-22T13:04:55;101671.47;;;-6.79;88.23
53758;BME280;39674;59.860;30.672;2023-02-22T13:07:28;101674.88;;;-6.80;88.54
53758;BME280;39674;59.860;30.672;2023-02-22T13:10:22;101678.25;;;-6.81;88.41
53758;BME280;39674;59.860;30.672;2023-02-22T13:12:56;101679.84;;;-6.85;88.33
53758;BME280;39674;59.860;30.672;2023-02-22T13:15:31;101687.50;;;-6.86;88.90
53758;BME280;39674;59.860;30.672;2023-02-22T13:18:07;101682.22;;;-6.89;88.13
53758;BME280;39674;59.860;30.672;2023-02-22T13:20:40;101685.56;;;-6.92;87.71
53758;BME280;39674;59.860;30.672;2023-02-22T13:23:13;101694.97;;;-6.93;87.91
53758;BME280;39674;59.860;30.672;2023-02-22T13:25:47;101694.25;;;-6.88;87.83
53758;BME280;39674;59.860;30.672;2023-02-22T13:28:19;101691.88;;;-6.84;88.79
53758;BME280;39674;59.860;30.672;2023-02-22T13:30:51;101690.97;;;-6.84;88.09
53758;BME280;39674;59.860;30.672;2023-02-22T13:33:30;101690.75;;;-6.90;88.54
53758;BME280;39674;59.860;30.672;2023-02-22T13:36:07;101695.81;;;-6.94;87.93
53758;BME280;39674;59.860;30.672;2023-02-22T13:38:58;101696.63;;;-6.95;88.28
53758;BME280;39674;59.860;30.672;2023-02-22T13:47:24;101694.69;;;-7.00;87.71
53758;BME280;39674;59.860;30.672;2023-02-22T13:50:07;101698.97;;;-7.01;88.06
53758;BME280;39674;59.860;30.672;2023-02-22T13:52:43;101703.16;;;-7.03;88.06